Time;durP1;ratioP1;P1;durP2;ratioP2;P2;SDS_P1;SDS_P2;PMS_P1;PMS_P2;Temp;Humidity;BMP_temperature;BMP_pressure;BME280_temperature;BME280_humidity;BME280_pressure;Samples;Min_cycle;Max_cycle;Signal;HPM_P1;HPM_P2
2022/08/22 00:00:16;;;;;;;35.88;4.97;;;;;;;20.33;74.79;99137.94;1801850;79;21464;-75
2022/08/22 00:02:46;;;;;;;36.38;6.15;;;;;;;20.32;74.82;99141.58;1800852;79;21074;-75
2022/08/22 00:05:50;;;;;;;31.82;4.67;;;;;;;20.30;74.82;99140.02;1802225;79;21015;-75
2022/08/22 00:08:27;;;;;;;26.82;5.25;;;;;;;20.28;74.91;99144.14;1802179;79;21047;-75
2022/08/22 00:11:30;;;;;;;31.60;5.00;;;;;;;20.27;74.98;99144.27;1801926;79;21239;-75
2022/08/22 00:14:29;;;;;;;42.50;5.92;;;;;;;20.25;74.85;99145.73;1691754;83;21112;-75
2022/08/22 00:17:00;;;;;;;45.63;6.12;;;;;;;20.26;74.83;99146.56;1652110;86;21114;-75
2022/08/22 00:19:52;;;;;;;28.57;4.95;;;;;;;20.25;74.95;99144.39;1748945;79;21036;-75
2022/08/22 00:22:51;;;;;;;35.45;5.00;;;;;;;20.23;75.14;99146.34;1777905;79;21590;-75
2022/08/22 00:25:55;;;;;;;26.93;4.28;;;;;;;20.19;75.17;99140.87;1776361;80;21565;-75
2022/08/22 00:28:41;;;;;;;35.05;5.95;;;;;;;20.15;75.26;99145.61;1776097;80;21103;-74
2022/08/22 00:31:13;;;;;;;38.48;5.17;;;;;;;20.13;75.28;99152.91;1775750;80;21133;-75
2022/08/22 00:34:08;;;;;;;34.38;5.67;;;;;;;20.12;75.35;99154.36;1775969;80;21060;-75
2022/08/22 00:36:43;;;;;;;24.85;4.45;;;;;;;20.08;75.39;99152.42;1775944;80;21080;-75
2022/08/22 00:39:36;;;;;;;34.40;5.55;;;;;;;20.05;75.54;99159.34;1776447;80;21278;-75
2022/08/22 00:42:26;;;;;;;31.15;4.87;;;;;;;20.01;75.62;99158.73;1775547;80;21070;-75
2022/08/22 00:45:10;;;;;;;38.20;5.30;;;;;;;20.00;75.73;99159.70;1776338;80;21066;-75
2022/08/22 00:48:11;;;;;;;24.10;5.08;;;;;;;19.98;75.88;99164.32;1776123;80;21050;-75
2022/08/22 00:51:14;;;;;;;25.37;4.80;;;;;;;19.95;75.87;99161.89;1776219;80;21067;-75
2022/08/22 00:53:46;;;;;;;27.48;5.35;;;;;;;19.93;75.96;99162.50;1775799;80;21979;-75
2022/08/22 00:56:55;;;;;;;34.58;5.17;;;;;;;19.89;76.04;99165.06;1727240;81;21032;-75
2022/08/22 00:59:59;;;;;;;29.00;4.75;;;;;;;19.87;76.14;99161.67;1723309;80;21020;-75
2022/08/22 01:02:44;;;;;;;34.53;4.83;;;;;;;19.85;76.27;99159.58;1717829;83;21375;-75
2022/08/22 01:05:50;;;;;;;34.45;5.20;;;;;;;19.81;76.24;99154.14;1717369;83;21188;-76
2022/08/22 01:08:40;;;;;;;21.68;5.05;;;;;;;19.78;76.44;99157.05;1748943;82;21198;-75
2022/08/22 01:11:28;;;;;;;31.45;5.78;;;;;;;19.77;76.54;99162.00;1748178;81;21510;-75
2022/08/22 01:14:43;;;;;;;37.90;5.10;;;;;;;19.76;76.56;99162.50;1748884;82;21596;-75
2022/08/22 01:17:53;;;;;;;33.10;5.87;;;;;;;19.73;76.67;99162.70;1749031;81;21026;-75
2022/08/22 01:20:44;;;;;;;41.05;6.15;;;;;;;19.68;76.69;99155.05;1749233;81;21362;-75
2022/08/22 01:23:49;;;;;;;31.07;5.30;;;;;;;19.65;76.77;99165.11;1762244;81;21232;-75
2022/08/22 01:26:49;;;;;;;25.48;4.85;;;;;;;19.63;76.78;99164.39;1762415;81;20982;-75
2022/08/22 01:29:59;;;;;;;33.90;5.83;;;;;;;19.58;76.81;99154.06;1762704;81;21094;-75
2022/08/22 01:32:34;;;;;;;29.42;4.87;;;;;;;19.56;76.88;99166.69;1762196;81;21576;-75
2022/08/22 01:35:22;;;;;;;31.42;5.62;;;;;;;19.55;76.90;99170.81;1760891;81;21080;-75
2022/08/22 01:38:18;;;;;;;34.08;4.85;;;;;;;19.54;76.77;99162.45;1762106;81;21122;-75
2022/08/22 01:40:56;;;;;;;31.85;4.58;;;;;;;19.55;76.76;99161.47;1762309;81;21167;-75
2022/08/22 01:43:46;;;;;;;25.20;5.33;;;;;;;19.55;76.74;99156.13;1762246;81;21631;-75
2022/08/22 01:46:27;;;;;;;35.33;4.95;;;;;;;19.55;76.78;99165.47;1762543;81;21042;-75
2022/08/22 01:49:25;;;;;;;26.20;4.58;;;;;;;19.51;76.83;99159.52;1762047;81;21592;-74
2022/08/22 01:52:06;;;;;;;46.30;6.55;;;;;;;19.51;76.90;99162.69;1745441;81;21236;-75
2022/08/22 01:54:53;;;;;;;32.83;4.12;;;;;;;19.48;76.99;99167.76;1762418;81;20998;-74
2022/08/22 01:57:21;;;;;;;26.37;4.95;;;;;;;19.46;77.07;99167.04;1762307;81;21090;-75
2022/08/22 01:59:51;;;;;;;32.30;5.47;;;;;;;19.42;77.00;99166.92;1762325;81;21023;-75
2022/08/22 02:02:23;;;;;;;29.95;5.10;;;;;;;19.38;77.04;99165.44;1762438;81;21600;-75
2022/08/22 02:04:58;;;;;;;26.27;5.20;;;;;;;19.36;77.17;99172.72;1762365;81;21141;-75
2022/08/22 02:07:52;;;;;;;43.08;5.67;;;;;;;19.34;77.30;99170.66;1762561;81;21490;-75
2022/08/22 02:10:42;;;;;;;25.43;4.58;;;;;;;19.31;77.32;99179.73;1762127;81;21069;-75
2022/08/22 02:13:36;;;;;;;28.47;5.03;;;;;;;19.29;77.27;99174.51;1762135;81;21034;-75
2022/08/22 02:16:23;;;;;;;20.23;4.42;;;;;;;19.27;77.38;99173.78;1762218;81;21057;-75
2022/08/22 02:19:08;;;;;;;28.62;4.85;;;;;;;19.24;77.42;99174.02;1746084;81;22658;-76
2022/08/22 02:22:01;;;;;;;20.92;4.95;;;;;;;19.21;77.58;99177.40;1785368;79;21118;-75
2022/08/22 02:24:54;;;;;;;24.55;5.20;;;;;;;19.15;77.70;99180.52;1754673;81;21059;-75
2022/08/22 02:27:48;;;;;;;21.80;4.65;;;;;;;19.09;77.66;99180.52;1753949;81;21060;-75
2022/08/22 02:30:22;;;;;;;33.40;6.67;;;;;;;19.07;77.75;99181.12;1754771;81;21061;-75
2022/08/22 02:33:06;;;;;;;24.65;4.28;;;;;;;19.07;77.71;99185.11;1754643;81;21785;-75
2022/08/22 02:35:49;;;;;;;19.67;4.65;;;;;;;19.06;77.70;99186.07;1748921;81;20933;-75
2022/08/22 02:38:24;;;;;;;28.95;5.25;;;;;;;19.03;77.56;99180.96;1734906;81;21091;-75
2022/08/22 02:41:09;;;;;;;25.57;4.67;;;;;;;19.01;77.48;99181.07;1754949;81;21127;-75
2022/08/22 02:43:47;;;;;;;34.25;4.28;;;;;;;19.01;77.42;99184.23;1754516;81;21056;-75
2022/08/22 02:46:31;;;;;;;26.70;4.47;;;;;;;19.01;77.33;99197.07;1755007;81;21103;-75
2022/08/22 02:49:12;;;;;;;23.13;4.67;;;;;;;18.99;77.29;99196.34;1753709;81;21080;-75
2022/08/22 02:52:09;;;;;;;22.52;4.50;;;;;;;18.96;77.22;99191.73;1754590;81;21467;-75
2022/08/22 02:54:57;;;;;;;22.07;4.03;;;;;;;18.93;77.23;99198.16;1754549;81;21612;-74
2022/08/22 02:57:41;;;;;;;18.27;4.45;;;;;;;18.92;77.23;99191.95;1727011;81;21602;-75
2022/08/22 03:00:27;;;;;;;19.10;4.72;;;;;;;18.93;77.12;99199.00;1749697;81;21773;-75
2022/08/22 03:03:07;;;;;;;24.30;4.30;;;;;;;18.92;77.09;99196.44;1745889;82;20992;-75
2022/08/22 03:05:47;;;;;;;22.73;4.75;;;;;;;18.92;76.85;99204.44;1716222;82;21533;-75
2022/08/22 03:08:31;;;;;;;22.32;4.72;;;;;;;18.90;76.72;99203.22;1764750;81;21047;-75
2022/08/22 03:11:09;;;;;;;24.95;4.40;;;;;;;18.90;76.59;99201.04;1764866;81;21035;-76
2022/08/22 03:14:07;;;;;;;18.75;4.08;;;;;;;18.88;76.60;99202.48;1764877;81;21110;-75
2022/08/22 03:16:57;;;;;;;22.80;4.28;;;;;;;18.86;76.84;99201.75;1734105;82;21110;-75
2022/08/22 03:19:31;;;;;;;22.58;5.17;;;;;;;18.83;76.76;99203.31;1751522;81;21009;-75
2022/08/22 03:22:11;;;;;;;19.17;3.70;;;;;;;18.82;76.67;99208.72;1723361;81;21086;-75
2022/08/22 03:24:55;;;;;;;26.62;5.10;;;;;;;18.80;76.72;99207.50;1723323;81;21075;-75
2022/08/22 03:27:28;;;;;;;27.10;4.40;;;;;;;18.78;76.79;99208.56;1764704;81;21863;-75
2022/08/22 03:29:59;;;;;;;24.67;4.45;;;;;;;18.74;76.73;99211.47;1717602;81;20988;-75
2022/08/22 03:32:54;;;;;;;21.37;3.83;;;;;;;18.72;76.84;99219.20;1722472;81;21070;-75
2022/08/22 03:35:34;;;;;;;18.17;4.12;;;;;;;18.70;76.95;99216.64;1751435;81;21043;-75
2022/08/22 03:38:34;;;;;;;30.25;5.30;;;;;;;18.71;76.81;99220.15;1764524;81;21063;-75
2022/08/22 03:41:16;;;;;;;20.70;4.28;;;;;;;18.68;76.84;99225.73;1751347;81;21212;-75
2022/08/22 03:44:24;;;;;;;24.90;3.70;;;;;;;18.67;76.98;99229.34;1751072;81;21035;-75
2022/08/22 03:47:21;;;;;;;17.67;3.62;;;;;;;18.67;77.20;99224.02;1750451;81;21121;-76
2022/08/22 03:50:11;;;;;;;16.85;4.15;;;;;;;18.69;77.33;99227.41;1764579;81;21044;-75
2022/08/22 03:53:06;;;;;;;28.45;4.95;;;;;;;18.73;77.22;99228.91;1735769;81;20987;-75
2022/08/22 03:56:05;;;;;;;22.20;4.75;;;;;;;18.74;76.61;99230.59;1750964;81;22372;-75
2022/08/22 03:58:59;;;;;;;34.10;4.40;;;;;;;18.76;76.22;99224.66;1751002;81;21177;-75
2022/08/22 04:02:11;;;;;;;22.70;4.17;;;;;;;18.78;75.91;99236.08;1751380;81;21086;-75
2022/08/22 04:04:49;;;;;;;21.15;3.55;;;;;;;18.81;75.47;99242.53;1751207;81;21074;-75
2022/08/22 04:07:52;;;;;;;19.70;3.67;;;;;;;18.85;74.77;99240.52;1751343;81;21054;-75
2022/08/22 04:10:58;;;;;;;17.23;3.65;;;;;;;18.88;74.28;99242.47;1751279;81;21922;-75
2022/08/22 04:14:02;;;;;;;;;;;;;;;18.91;74.00;99238.71;1754230;81;21003;-75
2022/08/22 04:16:46;;;;;;;18.65;3.55;;;;;;;18.97;73.69;99246.27;1759922;81;20537;-74
2022/08/22 04:19:41;;;;;;;18.50;4.83;;;;;;;18.99;73.11;99240.83;1750098;81;20984;-75
2022/08/22 04:22:22;;;;;;;19.27;3.70;;;;;;;19.01;72.65;99245.55;1760976;80;21067;-76
2022/08/22 04:25:02;;;;;;;21.55;3.83;;;;;;;19.02;72.33;99247.27;1784347;80;21190;-75
2022/08/22 04:27:44;;;;;;;25.20;4.60;;;;;;;19.05;71.85;99250.55;1812733;79;21029;-75
2022/08/22 04:30:22;;;;;;;35.68;5.22;;;;;;;19.09;71.67;99251.17;1811915;79;21030;-75
2022/08/22 04:33:00;;;;;;;24.75;3.58;;;;;;;19.13;71.47;99252.63;1812610;78;20975;-76
2022/08/22 04:35:38;;;;;;;24.70;3.83;;;;;;;19.20;71.30;99255.70;1784381;80;21065;-75
2022/08/22 04:38:13;;;;;;;19.62;3.33;;;;;;;19.24;71.05;99265.19;1812121;79;21142;-75
2022/08/22 04:40:49;;;;;;;;;;;;;;;19.28;70.75;99263.98;1815635;78;21809;-76
2022/08/22 04:43:35;;;;;;;21.30;3.85;;;;;;;19.30;70.54;99254.91;1809685;79;20167;-75
2022/08/22 04:46:33;;;;;;;21.25;3.87;;;;;;;19.34;70.49;99261.36;1810266;79;21977;-74
2022/08/22 04:49:23;;;;;;;22.65;3.67;;;;;;;19.37;70.37;99254.46;1784392;80;21047;-75
2022/08/22 04:51:54;;;;;;;18.02;3.62;;;;;;;19.42;70.38;99249.62;1806887;79;21288;-75
2022/08/22 04:54:50;;;;;;;19.87;3.50;;;;;;;19.47;69.94;99256.80;1783926;80;21595;-75
2022/08/22 04:57:47;;;;;;;;;;;;;;;19.51;69.79;99259.59;1802901;79;21615;-75
2022/08/22 05:00:14;;;;;;;19.35;3.70;;;;;;;19.57;69.55;99264.47;1771084;81;20593;-76
2022/08/22 05:02:47;;;;;;;24.00;3.42;;;;;;;19.62;69.16;99263.63;1771265;81;21600;-75
2022/08/22 05:05:20;;;;;;;31.97;4.70;;;;;;;19.67;68.85;99261.46;1771280;80;21217;-75
2022/08/22 05:07:56;;;;;;;23.37;3.77;;;;;;;19.72;68.62;99258.91;1771383;81;21039;-76
2022/08/22 05:10:36;;;;;;;23.42;4.53;;;;;;;19.79;68.73;99261.53;1771081;81;21004;-75
2022/08/22 05:13:19;;;;;;;13.45;3.70;;;;;;;19.84;68.60;99256.19;1771209;81;21569;-75
2022/08/22 05:15:51;;;;;;;26.07;3.65;;;;;;;19.90;68.17;99262.86;1729166;81;21059;-75
2022/08/22 05:18:29;;;;;;;27.40;3.90;;;;;;;19.96;67.53;99270.41;1771102;81;21565;-75
2022/08/22 05:20:58;;;;;;;18.30;3.40;;;;;;;19.99;67.02;99264.84;1770471;81;21193;-75
2022/08/22 05:23:35;;;;;;;31.62;3.87;;;;;;;20.04;66.58;99270.67;1771078;80;21638;-75
2022/08/22 05:26:03;;;;;;;23.25;3.35;;;;;;;20.10;66.37;99263.98;1770992;81;21043;-75
2022/08/22 05:28:43;;;;;;;25.72;4.87;;;;;;;20.16;66.15;99268.02;1771360;81;21804;-74
2022/08/22 05:31:26;;;;;;;23.18;3.75;;;;;;;20.22;65.77;99270.19;1771329;81;21197;-75
2022/08/22 05:34:03;;;;;;;17.90;3.50;;;;;;;20.26;65.13;99263.64;1770045;81;21051;-74
2022/08/22 05:36:40;;;;;;;19.42;4.15;;;;;;;20.32;65.06;99272.98;1767356;81;21099;-76
2022/08/22 05:39:23;;;;;;;16.85;3.85;;;;;;;20.34;64.99;99271.03;1771147;81;21032;-74
2022/08/22 05:41:50;;;;;;;16.40;3.20;;;;;;;20.35;64.60;99269.58;1771458;80;21090;-75
2022/08/22 05:44:22;;;;;;;18.05;3.62;;;;;;;20.36;64.70;99268.63;1771147;81;21639;-75
2022/08/22 05:47:07;;;;;;;17.23;3.52;;;;;;;20.36;64.82;99268.63;1769605;81;21070;-75
2022/08/22 05:50:11;;;;;;;21.33;4.33;;;;;;;20.38;64.78;99268.01;1758753;80;21031;-74
2022/08/22 05:52:57;;;;;;;20.05;3.47;;;;;;;20.43;64.41;99273.49;1771486;81;21138;-75
2022/08/22 05:55:33;;;;;;;;;;;;;;;20.47;64.50;99266.42;1773803;81;21585;-75
2022/08/22 05:58:31;;;;;;;18.30;3.45;;;;;;;20.54;65.08;99277.47;1771274;80;21832;-75
2022/08/22 06:01:27;;;;;;;20.70;4.20;;;;;;;20.59;65.04;99271.27;1769742;81;21051;-76
2022/08/22 06:04:27;;;;;;;26.20;3.45;;;;;;;20.68;64.79;99269.24;1771490;81;21005;-76
2022/08/22 06:07:07;;;;;;;19.90;4.22;;;;;;;20.76;64.44;99273.48;1763280;80;21065;-75
2022/08/22 06:09:48;;;;;;;20.43;4.65;;;;;;;20.85;63.23;99274.55;1759197;81;21497;-76
2022/08/22 06:12:29;;;;;;;29.95;4.15;;;;;;;20.93;63.21;99272.58;1758933;80;21918;-74
2022/08/22 06:15:24;;;;;;;22.42;3.58;;;;;;;21.00;62.42;99268.45;1758557;81;21128;-74
2022/08/22 06:18:01;;;;;;;16.97;4.10;;;;;;;21.05;61.89;99278.78;1759257;81;21064;-73
2022/08/22 06:20:56;;;;;;;19.60;3.60;;;;;;;21.10;61.44;99273.40;1759140;81;20994;-74
2022/08/22 06:23:28;;;;;;;23.55;3.70;;;;;;;21.14;61.07;99268.14;1790120;78;21100;-74
2022/08/22 06:25:59;;;;;;;20.57;4.28;;;;;;;21.21;60.95;99268.98;1804129;79;21131;-75
2022/08/22 06:28:31;;;;;;;21.73;3.10;;;;;;;21.29;60.79;99273.22;1804181;79;21515;-75
2022/08/22 06:30:57;;;;;;;21.00;3.45;;;;;;;21.35;60.23;99268.70;1782749;79;21028;-75
2022/08/22 06:33:27;;;;;;;20.72;3.12;;;;;;;21.45;60.59;99268.28;1804117;79;21136;-75
2022/08/22 06:39:31;;;;;;;20.55;4.00;;;;;;;21.58;58.77;99275.31;1804023;79;21601;-75
2022/08/22 06:42:22;;;;;;;21.80;3.42;;;;;;;21.65;58.39;99273.80;1804005;79;21095;-76
2022/08/22 06:45:07;;;;;;;17.85;3.20;;;;;;;21.73;59.17;99275.34;1803854;78;21138;-75
2022/08/22 06:47:41;;;;;;;19.90;3.58;;;;;;;21.81;58.70;99271.53;1802138;79;21055;-75
2022/08/22 06:50:29;;;;;;;23.38;3.47;;;;;;;21.87;57.67;99275.03;1801088;79;21487;-76
2022/08/22 06:53:15;;;;;;;26.73;3.22;;;;;;;21.96;58.09;99268.03;1801882;79;21133;-75
2022/08/22 06:55:56;;;;;;;20.85;3.12;;;;;;;22.08;57.43;99272.31;1801766;79;21090;-75
2022/08/22 06:58:27;;;;;;;37.25;3.77;;;;;;;22.19;58.56;99267.38;1801607;79;21510;-75
2022/08/22 07:00:59;;;;;;;21.68;3.52;;;;;;;22.29;58.00;99263.42;1801674;79;21149;-76
2022/08/22 07:03:35;;;;;;;30.68;3.58;;;;;;;22.38;57.48;99255.92;1801613;79;21094;-75
2022/08/22 07:06:02;;;;;;;21.75;3.58;;;;;;;22.52;57.51;99252.02;1782162;80;21292;-76
2022/08/22 07:08:31;;;;;;;16.62;3.05;;;;;;;22.65;56.71;99250.95;1809808;79;21125;-75
2022/08/22 07:11:26;;;;;;;27.27;4.05;;;;;;;22.77;56.31;99257.88;1810081;79;20975;-75
2022/08/22 07:14:00;;;;;;;19.90;3.50;;;;;;;22.89;55.53;99264.81;1810151;79;21039;-75
2022/08/22 07:16:41;;;;;;;27.07;3.05;;;;;;;23.03;55.29;99262.72;1810165;79;21034;-75
2022/08/22 07:19:22;;;;;;;21.42;2.85;;;;;;;23.16;54.29;99261.99;1781064;79;21105;-74
2022/08/22 07:21:48;;;;;;;27.05;3.00;;;;;;;23.30;53.97;99256.70;1783859;79;21050;-74
2022/08/22 07:24:21;;;;;;;24.00;3.15;;;;;;;23.45;54.19;99259.34;1812827;79;21005;-75
2022/08/22 07:27:02;;;;;;;14.35;3.12;;;;;;;23.57;53.68;99250.63;1812783;79;21047;-75
2022/08/22 07:29:52;;;;;;;25.40;4.03;;;;;;;23.70;52.96;99247.63;1812911;79;21066;-75
2022/08/22 07:32:23;;;;;;;19.62;3.35;;;;;;;23.85;52.66;99251.58;1812676;79;21845;-75
2022/08/22 07:35:14;;;;;;;21.70;3.02;;;;;;;24.00;52.97;99253.32;1812803;78;20970;-75
2022/08/22 07:37:56;;;;;;;22.35;4.05;;;;;;;24.11;52.51;99243.75;1812725;79;21525;-76
2022/08/22 07:40:39;;;;;;;24.95;3.52;;;;;;;24.27;52.18;99248.99;1812907;79;21882;-75
2022/08/22 07:43:29;;;;;;;19.12;3.62;;;;;;;24.41;51.51;99243.14;1812568;78;21102;-75
2022/08/22 07:46:07;;;;;;;13.68;3.42;;;;;;;24.55;51.82;99237.80;1813051;78;21891;-76
2022/08/22 07:48:45;;;;;;;16.70;3.83;;;;;;;24.72;52.72;99240.68;1813022;79;21498;-75
2022/08/22 07:51:17;;;;;;;16.75;2.98;;;;;;;24.88;51.81;99235.96;1813176;79;22393;-76
2022/08/22 07:53:48;;;;;;;21.48;3.08;;;;;;;25.00;50.59;99237.45;1813119;79;21474;-75
2022/08/22 07:56:28;;;;;;;21.45;3.45;;;;;;;25.12;50.28;99236.22;1813162;79;21062;-75
2022/08/22 07:58:58;;;;;;;21.50;3.30;;;;;;;25.24;49.86;99237.34;1813200;79;21185;-75
2022/08/22 08:01:25;;;;;;;23.12;3.67;;;;;;;25.34;48.36;99237.63;1813015;79;20975;-76
2022/08/22 08:03:56;;;;;;;19.48;2.85;;;;;;;25.39;47.94;99236.66;1818847;78;21113;-75
2022/08/22 08:06:23;;;;;;;14.80;3.10;;;;;;;25.47;48.15;99237.72;1821208;78;21025;-75
2022/08/22 08:08:51;;;;;;;22.93;3.35;;;;;;;25.55;48.04;99234.62;1794329;78;21029;-75
2022/08/22 08:11:18;;;;;;;22.73;3.83;;;;;;;25.64;47.98;99227.92;1821141;78;21163;-76
2022/08/22 08:13:48;;;;;;;22.62;2.98;;;;;;;25.73;48.16;99229.69;1821471;78;20943;-75
2022/08/22 08:16:19;;;;;;;26.07;3.50;;;;;;;25.81;47.86;99234.30;1821542;78;21108;-75
2022/08/22 08:18:48;;;;;;;21.95;3.12;;;;;;;25.91;47.29;99231.83;1821387;78;21046;-76
2022/08/22 08:21:41;;;;;;;21.27;3.72;;;;;;;26.01;47.10;99230.89;1821512;78;20991;-75
2022/08/22 08:24:12;;;;;;;25.35;3.85;;;;;;;26.12;47.02;99231.98;1821240;78;21087;-76
2022/08/22 08:28:32;;;;;;;24.52;3.58;;;;;;;26.22;46.56;99227.31;1820876;78;21655;-76
2022/08/22 08:29:15;;;;;;;26.10;3.67;;;;;;;26.31;46.34;99228.22;1817448;78;20981;-76
2022/08/22 08:31:42;;;;;;;36.42;4.42;;;;;;;26.43;46.21;99226.08;1766122;78;21497;-75
2022/08/22 08:34:16;;;;;;;20.00;2.92;;;;;;;26.51;45.61;99234.17;1729057;80;21065;-75
2022/08/22 08:36:54;;;;;;;24.18;4.35;;;;;;;26.58;45.46;99231.67;1812897;78;21198;-75
2022/08/22 08:39:48;;;;;;;28.38;4.05;;;;;;;26.65;45.24;99228.20;1784488;80;21026;-76
2022/08/22 08:43:26;;;;;;;27.75;4.45;;;;;;;26.75;45.04;99227.20;1783525;79;21065;-76
2022/08/22 08:45:18;;;;;;;27.98;4.22;;;;;;;26.84;44.45;99232.47;1808240;79;21133;-76
2022/08/22 08:48:05;;;;;;;19.40;3.10;;;;;;;26.91;44.61;99228.59;1812984;78;20979;-75
2022/08/22 08:51:01;;;;;;;17.15;3.08;;;;;;;26.99;44.33;99229.97;1813226;78;21188;-75
2022/08/22 08:53:54;;;;;;;26.73;2.98;;;;;;;27.07;44.33;99233.20;1811793;79;21042;-76
2022/08/22 08:56:26;;;;;;;29.02;3.80;;;;;;;27.12;43.42;99227.28;1778200;79;21544;-76
2022/08/22 08:59:26;;;;;;;24.77;3.52;;;;;;;27.18;42.63;99227.97;1797989;79;21037;-76
2022/08/22 09:02:25;;;;;;;23.73;3.33;;;;;;;27.23;43.06;99218.86;1761245;81;21006;-76
2022/08/22 09:05:27;;;;;;;24.10;3.60;;;;;;;27.34;43.18;99225.32;1760104;81;21124;-75
2022/08/22 09:08:26;;;;;;;25.48;3.27;;;;;;;27.42;43.24;99229.38;1675372;85;22023;-76
2022/08/22 09:11:32;;;;;;;22.60;3.95;;;;;;;27.54;43.38;99223.64;1760781;81;21651;-75
2022/08/22 09:14:28;;;;;;;18.45;3.17;;;;;;;27.67;43.50;99223.97;1760833;81;21579;-75
2022/08/22 09:17:09;;;;;;;25.45;3.60;;;;;;;27.84;43.16;99221.22;1729788;81;21061;-75
2022/08/22 09:20:16;;;;;;;25.90;3.35;;;;;;;27.96;42.98;99218.55;1760800;80;21185;-76
2022/08/22 09:23:10;;;;;;;30.00;3.45;;;;;;;28.09;42.21;99218.85;1760484;81;21555;-75
2022/08/22 09:25:50;;;;;;;21.85;3.65;;;;;;;28.19;41.32;99219.14;1714328;82;21043;-74
2022/08/22 09:28:52;;;;;;;27.95;4.47;;;;;;;28.29;41.09;99210.31;1718073;82;21063;-74
2022/08/22 09:31:39;;;;;;;27.40;3.02;;;;;;;28.40;40.33;99214.00;1736006;82;21008;-74
2022/08/22 09:34:24;;;;;;;29.57;3.40;;;;;;;28.51;41.36;99206.84;1735639;82;21329;-75
2022/08/22 09:37:18;;;;;;;24.50;3.08;;;;;;;28.62;40.18;99204.80;1735968;82;21095;-73
2022/08/22 09:40:16;;;;;;;23.65;3.50;;;;;;;28.74;40.58;99202.02;1720725;83;21564;-74
2022/08/22 09:43:06;;;;;;;20.88;3.10;;;;;;;28.82;39.40;99203.84;1735818;82;21514;-74
2022/08/22 09:45:57;;;;;;;35.08;4.03;;;;;;;28.88;39.24;99206.67;1735768;82;21062;-74
2022/08/22 09:48:50;;;;;;;41.40;4.33;;;;;;;28.97;36.97;99202.56;1736241;82;21093;-74
2022/08/22 09:51:33;;;;;;;31.12;4.00;;;;;;;29.06;37.34;99198.77;1720776;83;21074;-75
2022/08/22 09:54:32;;;;;;;44.63;4.62;;;;;;;29.14;36.06;99205.47;1736316;82;21070;-76
2022/08/22 09:57:19;;;;;;;44.50;4.37;;;;;;;29.19;35.48;99195.49;1735794;82;21019;-74
2022/08/22 10:00:23;;;;;;;38.40;4.85;;;;;;;29.27;35.44;99204.39;1735717;82;21039;-76
2022/08/22 10:03:02;;;;;;;38.17;4.17;;;;;;;29.33;34.72;99203.33;1736112;82;21807;-75
2022/08/22 10:05:47;;;;;;;37.42;3.72;;;;;;;29.38;34.54;99205.81;1735696;82;21327;-75
2022/08/22 10:08:31;;;;;;;33.42;4.45;;;;;;;29.45;35.45;99207.28;1755764;80;21110;-76
2022/08/22 10:11:32;;;;;;;40.83;3.70;;;;;;;29.54;35.60;99210.27;1758023;80;21101;-74
2022/08/22 10:14:19;;;;;;;38.63;5.78;;;;;;;29.65;35.14;99212.51;1757996;80;21058;-75
2022/08/22 10:17:04;;;;;;;39.35;4.30;;;;;;;29.74;35.32;99209.72;1757905;80;21099;-75
2022/08/22 10:19:50;;;;;;;54.90;5.08;;;;;;;29.85;35.60;99209.31;1758234;81;21027;-75
2022/08/22 10:22:43;;;;;;;47.75;5.22;;;;;;;29.94;35.38;99206.86;1758043;81;21031;-74
2022/08/22 10:25:27;;;;;;;43.63;6.40;;;;;;;30.06;35.04;99209.08;1771278;80;20999;-74
2022/08/22 10:28:34;;;;;;;58.92;5.33;;;;;;;30.16;34.27;99215.07;1738989;82;21082;-75
2022/08/22 10:31:22;;;;;;;45.03;5.25;;;;;;;30.22;34.28;99215.69;1739507;82;21173;-75
2022/08/22 10:34:15;;;;;;;67.82;6.50;;;;;;;30.30;34.50;99212.88;1708276;82;21554;-75
2022/08/22 10:36:53;;;;;;;52.48;5.28;;;;;;;30.40;33.72;99221.30;1739459;82;21062;-75
2022/08/22 10:39:24;;;;;;;40.73;5.33;;;;;;;30.44;33.85;99223.94;1739073;82;21106;-76
2022/08/22 10:42:34;;;;;;;41.55;4.80;;;;;;;30.47;33.94;99215.42;1739504;82;21031;-75
2022/08/22 10:45:30;;;;;;;51.50;5.33;;;;;;;30.49;33.89;99214.72;1739357;82;21655;-75
2022/08/22 10:48:11;;;;;;;51.02;4.97;;;;;;;30.54;34.03;99219.06;1739853;82;20980;-75
2022/08/22 10:50:46;;;;;;;48.95;6.22;;;;;;;30.60;34.20;99220.16;1739207;82;21118;-75
2022/08/22 10:53:29;;;;;;;57.60;5.40;;;;;;;30.65;34.96;99217.72;1708618;82;21122;-75
2022/08/22 10:56:22;;;;;;;50.08;5.83;;;;;;;30.70;34.06;99216.66;1752843;80;21106;-74
2022/08/22 10:59:24;;;;;;;57.75;5.80;;;;;;;30.73;34.45;99221.19;1716122;81;21138;-75
2022/08/22 11:02:29;;;;;;;59.42;5.05;;;;;;;30.82;33.50;99215.64;1766179;81;21053;-75
2022/08/22 11:05:41;;;;;;;56.85;7.15;;;;;;;30.84;33.96;99224.43;1766228;81;21095;-75
2022/08/22 11:08:31;;;;;;;52.20;5.62;;;;;;;30.92;34.11;99220.24;1766126;81;21077;-74
2022/08/22 11:11:09;;;;;;;55.92;5.58;;;;;;;31.00;34.04;99226.95;1766377;81;21037;-74
2022/08/22 11:14:20;;;;;;;63.95;5.95;;;;;;;31.06;33.19;99215.29;1710100;81;21836;-76
2022/08/22 11:17:06;;;;;;;79.30;7.05;;;;;;;31.13;34.03;99228.11;1766362;81;21072;-75
2022/08/22 11:19:50;;;;;;;56.25;7.53;;;;;;;31.21;34.38;99217.95;1764990;81;21064;-75
2022/08/22 11:22:50;;;;;;;56.50;7.37;;;;;;;31.30;33.79;99218.16;1706476;81;21049;-75
2022/08/22 11:25:45;;;;;;;68.45;7.35;;;;;;;31.36;33.93;99217.05;1752218;80;21925;-74
2022/08/22 11:28:30;;;;;;;;;;;;;;;31.44;33.45;99217.75;1757577;81;21211;-75
2022/08/22 11:31:07;;;;;;;66.17;6.65;;;;;;;31.49;33.55;99219.89;1754726;81;20201;-75
2022/08/22 11:33:47;;;;;;;51.05;5.80;;;;;;;31.49;33.17;99221.25;1783816;80;21018;-75
2022/08/22 11:36:37;;;;;;;64.85;6.12;;;;;;;31.52;33.51;99215.95;1754748;81;21097;-74
2022/08/22 11:39:32;;;;;;;70.05;7.60;;;;;;;31.62;33.93;99216.45;1785371;80;21524;-75
2022/08/22 11:42:22;;;;;;;66.30;7.75;;;;;;;31.73;33.87;99221.36;1754677;81;21212;-75
2022/08/22 11:44:56;;;;;;;61.18;7.87;;;;;;;31.86;33.86;99215.19;1784695;80;21021;-75
2022/08/22 11:47:33;;;;;;;72.22;8.90;;;;;;;31.91;32.82;99218.14;1754882;81;21050;-74
2022/08/22 11:50:26;;;;;;;70.80;7.42;;;;;;;31.93;32.59;99221.50;1784617;80;21045;-74
2022/08/22 11:53:21;;;;;;;62.62;7.33;;;;;;;31.95;31.94;99224.03;1754917;81;21507;-75
2022/08/22 11:56:08;;;;;;;74.55;7.53;;;;;;;31.99;32.94;99210.33;1784536;80;21103;-75
2022/08/22 11:59:00;;;;;;;70.32;8.93;;;;;;;32.08;32.70;99218.70;1755184;81;20991;-75
2022/08/22 12:01:35;;;;;;;83.58;9.85;;;;;;;32.14;32.20;99223.86;1750592;82;21019;-75
2022/08/22 12:04:07;;;;;;;68.47;8.58;;;;;;;32.20;32.07;99211.64;1751098;81;22251;-75
2022/08/22 12:07:01;;;;;;;80.50;8.40;;;;;;;32.31;32.17;99217.56;1750786;81;21070;-75
2022/08/22 12:09:50;;;;;;;75.50;9.03;;;;;;;32.38;31.44;99212.98;1750806;81;21089;-75
2022/08/22 12:12:23;;;;;;;68.52;8.70;;;;;;;32.47;32.27;99209.58;1750472;81;20979;-75
2022/08/22 12:14:55;;;;;;;81.47;8.88;;;;;;;32.60;31.63;99208.28;1750991;80;21133;-75
2022/08/22 12:17:46;;;;;;;80.25;9.68;;;;;;;32.63;31.14;99206.52;1761785;80;21041;-74
2022/08/22 12:20:52;;;;;;;79.32;10.80;;;;;;;32.68;30.28;99207.27;1762021;81;22058;-75
2022/08/22 12:23:40;;;;;;;77.97;8.80;;;;;;;32.71;29.48;99212.31;1761537;81;21231;-76
2022/08/22 12:26:30;;;;;;;86.67;10.50;;;;;;;32.68;29.53;99208.13;1727378;81;20982;-76
2022/08/22 12:29:15;;;;;;;95.70;10.55;;;;;;;32.66;29.88;99207.47;1727259;82;21080;-75
2022/08/22 12:32:32;;;;;;;89.13;9.23;;;;;;;32.75;30.45;99203.53;1721489;82;21086;-76
2022/08/22 12:35:07;;;;;;;90.85;11.20;;;;;;;32.85;29.85;99205.88;1720911;83;21061;-75
2022/08/22 12:37:39;;;;;;;62.78;7.83;;;;;;;32.90;29.93;99206.09;1727322;82;21496;-75
2022/08/22 12:40:32;;;;;;;87.88;10.08;;;;;;;33.00;29.62;99211.66;1727006;82;21046;-76
2022/08/22 12:43:22;;;;;;;90.32;9.20;;;;;;;33.07;29.69;99209.78;1726845;83;21145;-74
2022/08/22 12:46:09;;;;;;;82.45;8.93;;;;;;;33.11;29.80;99198.79;1726902;83;21124;-75
2022/08/22 12:48:53;;;;;;;68.92;8.45;;;;;;;33.20;29.24;99203.55;1727570;82;21085;-75
2022/08/22 12:51:42;;;;;;;88.80;9.18;;;;;;;33.21;29.61;99207.43;1727594;83;21137;-75
2022/08/22 12:54:50;;;;;;;67.30;8.23;;;;;;;33.27;29.82;99201.16;1727432;81;21044;-75